Time;durP1;ratioP1;P1;durP2;ratioP2;P2;SDS_P1;SDS_P2;PMS_P1;PMS_P2;Temp;Humidity;BMP_temperature;BMP_pressure;BME280_temperature;BME280_humidity;BME280_pressure;Samples;Min_cycle;Max_cycle;Signal;HPM_P1;HPM_P2
2020/12/09 00:05:58;;;;;;;18.17;9.73;;;;;;;;;;4971889;28;20420;-79
2020/12/09 00:08:54;;;;;;;15.77;9.02;;;;;;;;;;4975688;28;20094;-80
2020/12/09 00:11:33;;;;;;;17.60;9.30;;;;;;;;;;4973921;28;20130;-78
2020/12/09 00:14:05;;;;;;;19.15;9.07;;;;;;;;;;4955679;28;20506;-79
2020/12/09 00:16:48;;;;;;;16.15;9.32;;;;;;;;;;4969999;28;20039;-78
2020/12/09 00:19:21;;;;;;;18.55;10.30;;;;;;;;;;4988195;28;20043;-80
2020/12/09 00:21:57;;;;;;;18.33;10.30;;;;;;;;;;4975416;28;20054;-80
2020/12/09 00:24:30;;;;;;;;;;;;;;;;;;4950344;28;20055;-80
2020/12/09 00:27:11;;;;;;;19.88;11.10;;;;;;;;;;4983166;28;19957;-80
2020/12/09 00:30:02;;;;;;;20.07;11.90;;;;;;;;;;4968315;28;20066;-79
2020/12/09 00:32:39;;;;;;;25.55;13.20;;;;;;;;;;4976522;28;20310;-78
2020/12/09 00:35:21;;;;;;;;;;;;;;;;;;4976407;28;20039;-80
2020/12/09 00:38:12;;;;;;;;;;;;;;;;;;;;;
2020/12/09 00:40:53;;;;;;;32.28;16.73;;;;;;;;;;4957463;29;20054;-80
2020/12/09 00:43:35;;;;;;;34.55;18.80;;;;;;;;;;4985129;28;20054;-80
2020/12/09 00:46:34;;;;;;;41.00;21.10;;;;;;;;;;4984905;28;20062;-79
2020/12/09 00:49:11;;;;;;;39.55;20.65;;;;;;;;;;4998758;28;20097;-80
2020/12/09 00:51:58;;;;;;;40.60;21.60;;;;;;;;;;4989470;28;20138;-80
2020/12/09 00:54:55;;;;;;;40.78;21.20;;;;;;;;;;4962050;28;20299;-80
2020/12/09 00:57:36;;;;;;;42.13;22.75;;;;;;;;;;4990669;28;20047;-79
2020/12/09 01:00:12;;;;;;;40.97;22.15;;;;;;;;;;4976340;28;20043;-79
2020/12/09 01:02:54;;;;;;;42.65;22.38;;;;;;;;;;4974360;28;20047;-79
2020/12/09 01:05:40;;;;;;;43.40;23.27;;;;;;;;;;4961106;28;20053;-79
2020/12/09 01:08:29;;;;;;;50.25;24.58;;;;;;;;;;4974530;28;20137;-80
2020/12/09 01:11:11;;;;;;;43.10;23.40;;;;;;;;;;4977853;28;20393;-80
2020/12/09 01:13:55;;;;;;;48.20;24.33;;;;;;;;;;4990445;28;20051;-81
2020/12/09 01:16:45;;;;;;;47.03;24.42;;;;;;;;;;4991732;28;20042;-80
2020/12/09 01:19:25;;;;;;;48.70;23.92;;;;;;;;;;4966632;28;20582;-80
2020/12/09 01:22:22;;;;;;;48.63;25.52;;;;;;;;;;4956274;28;20114;-79
2020/12/09 01:25:24;;;;;;;49.28;25.15;;;;;;;;;;4973165;28;20514;-80
2020/12/09 01:28:08;;;;;;;43.95;23.75;;;;;;;;;;4955450;28;20067;-81
2020/12/09 01:30:57;;;;;;;45.47;24.20;;;;;;;;;;4954417;29;20149;-81
2020/12/09 01:33:40;;;;;;;45.00;23.45;;;;;;;;;;4941101;29;20127;-80
2020/12/09 01:36:23;;;;;;;45.20;23.50;;;;;;;;;;4974428;28;20047;-81
2020/12/09 01:39:10;;;;;;;41.58;23.45;;;;;;;;;;4943224;29;20047;-80
2020/12/09 01:42:03;;;;;;;47.55;24.13;;;;;;;;;;4977240;28;20050;-80
2020/12/09 01:44:41;;;;;;;49.72;24.50;;;;;;;;;;5032092;23;20058;-80
2020/12/09 01:47:20;;;;;;;48.15;24.85;;;;;;;;;;4977023;28;20038;-79
2020/12/09 01:49:49;;;;;;;48.35;25.20;;;;;;;;;;4991700;28;20070;-81
2020/12/09 01:52:22;;;;;;;52.78;26.35;;;;;;;;;;4988624;28;20046;-80
2020/12/09 01:54:51;;;;;;;50.13;25.23;;;;;;;;;;4993327;28;20514;-79
2020/12/09 01:57:36;;;;;;;51.65;24.75;;;;;;;;;;5001506;23;20054;-82
2020/12/09 02:00:02;;;;;;;53.13;25.42;;;;;;;;;;5001169;28;20092;-82
2020/12/09 02:02:28;;;;;;;50.53;25.38;;;;;;;;;;5003809;28;20050;-83
2020/12/09 02:04:55;;;;;;;49.85;24.92;;;;;;;;;;4987361;28;20042;-83
2020/12/09 02:07:22;;;;;;;53.47;24.98;;;;;;;;;;5029226;28;20056;-83
2020/12/09 02:10:01;;;;;;;50.05;25.40;;;;;;;;;;5013619;28;20049;-83
2020/12/09 02:12:29;;;;;;;48.20;25.50;;;;;;;;;;5000697;28;20053;-83
2020/12/09 02:14:56;;;;;;;48.60;24.98;;;;;;;;;;4999172;28;20045;-83
2020/12/09 02:17:23;;;;;;;50.78;24.88;;;;;;;;;;4998720;28;20501;-83
2020/12/09 02:19:49;;;;;;;50.83;25.50;;;;;;;;;;5016278;28;20070;-83
2020/12/09 02:22:15;;;;;;;50.90;25.77;;;;;;;;;;4998984;28;20088;-83
2020/12/09 02:24:42;;;;;;;50.85;23.92;;;;;;;;;;5013645;28;20042;-83
2020/12/09 02:27:10;;;;;;;47.45;24.75;;;;;;;;;;5013500;28;20417;-83
2020/12/09 02:29:36;;;;;;;45.60;24.70;;;;;;;;;;4996279;28;20061;-83
2020/12/09 02:32:02;;;;;;;48.72;23.98;;;;;;;;;;4997106;28;20045;-83
2020/12/09 02:34:28;;;;;;;47.30;23.63;;;;;;;;;;5015708;28;20045;-83
2020/12/09 02:36:55;;;;;;;51.30;24.60;;;;;;;;;;5024926;28;20057;-82
2020/12/09 02:39:27;;;;;;;46.53;24.35;;;;;;;;;;5016498;28;20061;-82
2020/12/09 02:41:53;;;;;;;51.63;25.42;;;;;;;;;;4999427;28;20130;-82
2020/12/09 02:44:20;;;;;;;52.25;25.33;;;;;;;;;;5009281;28;20049;-82
2020/12/09 02:46:46;;;;;;;49.05;24.58;;;;;;;;;;5000674;28;20440;-82
2020/12/09 02:49:12;;;;;;;53.38;26.38;;;;;;;;;;4999787;28;20086;-82
2020/12/09 02:51:38;;;;;;;51.92;25.08;;;;;;;;;;5034173;28;20045;-83
2020/12/09 02:54:04;;;;;;;50.58;25.15;;;;;;;;;;5017105;28;20413;-81
2020/12/09 02:56:30;;;;;;;47.05;24.35;;;;;;;;;;5001592;28;20081;-82
2020/12/09 02:58:57;;;;;;;52.80;26.23;;;;;;;;;;5034231;28;20045;-83
2020/12/09 03:01:23;;;;;;;48.40;24.70;;;;;;;;;;5035331;28;20049;-82
2020/12/09 03:03:49;;;;;;;52.97;25.55;;;;;;;;;;5022376;28;20042;-82
2020/12/09 03:06:16;;;;;;;50.90;25.92;;;;;;;;;;5019726;28;20547;-82
2020/12/09 03:08:43;;;;;;;52.70;26.25;;;;;;;;;;5018376;28;20075;-82
2020/12/09 03:11:09;;;;;;;50.22;24.63;;;;;;;;;;5035659;28;20041;-82
2020/12/09 03:13:36;;;;;;;53.35;25.52;;;;;;;;;;5035099;28;20041;-82
2020/12/09 03:16:02;;;;;;;44.15;23.38;;;;;;;;;;5016741;28;20442;-82
2020/12/09 03:18:29;;;;;;;49.45;24.23;;;;;;;;;;5035007;28;20037;-82
2020/12/09 03:20:55;;;;;;;50.60;24.58;;;;;;;;;;5016672;28;20041;-82
2020/12/09 03:23:21;;;;;;;48.15;22.45;;;;;;;;;;5035907;28;20117;-82
2020/12/09 03:25:47;;;;;;;45.47;23.38;;;;;;;;;;5000955;28;20046;-82
2020/12/09 03:28:14;;;;;;;49.05;24.40;;;;;;;;;;5017410;28;20049;-82
2020/12/09 03:30:40;;;;;;;48.22;22.60;;;;;;;;;;5034806;28;20053;-82
2020/12/09 03:33:07;;;;;;;44.55;21.88;;;;;;;;;;5024233;28;20037;-82
2020/12/09 03:35:33;;;;;;;41.33;20.77;;;;;;;;;;5023523;28;20119;-81
2020/12/09 03:37:59;;;;;;;38.30;19.83;;;;;;;;;;5015726;28;20042;-82
2020/12/09 03:40:28;;;;;;;37.95;19.35;;;;;;;;;;5015370;28;20040;-82
2020/12/09 03:42:54;;;;;;;38.45;19.33;;;;;;;;;;5016962;28;20037;-82
2020/12/09 03:45:22;;;;;;;35.75;18.95;;;;;;;;;;5042816;28;20029;-82
2020/12/09 03:47:48;;;;;;;32.05;16.92;;;;;;;;;;5035567;28;20455;-81
2020/12/09 03:50:15;;;;;;;33.47;17.65;;;;;;;;;;5015930;28;20534;-81
2020/12/09 03:52:41;;;;;;;34.53;17.20;;;;;;;;;;4999937;28;20045;-81
2020/12/09 03:55:07;;;;;;;33.40;17.27;;;;;;;;;;5033956;28;20039;-81
2020/12/09 03:57:34;;;;;;;28.67;15.50;;;;;;;;;;5033274;28;20041;-82
2020/12/09 04:00:00;;;;;;;26.02;14.93;;;;;;;;;;5016971;28;20152;-81
2020/12/09 04:02:26;;;;;;;31.98;16.10;;;;;;;;;;5034465;28;20087;-82
2020/12/09 04:04:55;;;;;;;31.65;16.00;;;;;;;;;;5001065;28;20041;-81
2020/12/09 04:07:21;;;;;;;29.05;15.70;;;;;;;;;;5000294;28;20045;-82
2020/12/09 04:09:47;;;;;;;30.60;15.70;;;;;;;;;;5038421;28;20041;-82
2020/12/09 04:12:13;;;;;;;26.08;14.45;;;;;;;;;;5035318;28;20149;-82
2020/12/09 04:14:40;;;;;;;29.75;14.98;;;;;;;;;;5037458;28;20172;-82
2020/12/09 04:17:06;;;;;;;27.63;15.50;;;;;;;;;;5004361;28;20041;-82
2020/12/09 04:19:32;;;;;;;23.45;13.00;;;;;;;;;;5017779;28;20042;-82
2020/12/09 04:21:58;;;;;;;25.00;13.25;;;;;;;;;;5038625;28;20125;-81
2020/12/09 04:24:24;;;;;;;22.90;12.80;;;;;;;;;;5033095;28;20129;-82
2020/12/09 04:26:50;;;;;;;22.35;12.35;;;;;;;;;;5033290;28;20056;-81
2020/12/09 04:29:17;;;;;;;24.83;13.13;;;;;;;;;;5015152;28;20128;-82
2020/12/09 04:31:44;;;;;;;22.33;12.32;;;;;;;;;;5042399;28;20049;-82
2020/12/09 04:34:11;;;;;;;25.85;12.32;;;;;;;;;;5017210;28;20033;-82
2020/12/09 04:36:38;;;;;;;23.25;12.82;;;;;;;;;;5044347;28;20041;-82
2020/12/09 04:39:04;;;;;;;26.23;12.30;;;;;;;;;;5015899;28;20064;-81
2020/12/09 04:41:31;;;;;;;19.98;11.15;;;;;;;;;;5032360;28;20049;-82
2020/12/09 04:43:59;;;;;;;23.65;11.93;;;;;;;;;;4998618;28;20045;-82
2020/12/09 04:46:25;;;;;;;21.50;12.02;;;;;;;;;;5016536;28;20045;-81
2020/12/09 04:48:58;;;;;;;36.10;13.73;;;;;;;;;;5016895;28;20064;-81
2020/12/09 04:51:31;;;;;;;25.63;13.18;;;;;;;;;;5033991;28;20042;-81
2020/12/09 04:53:58;;;;;;;26.83;14.02;;;;;;;;;;4999631;28;20042;-82
2020/12/09 04:56:35;;;;;;;29.17;14.45;;;;;;;;;;4996917;28;20046;-82
2020/12/09 04:59:07;;;;;;;32.78;17.23;;;;;;;;;;4997701;28;20115;-81
2020/12/09 05:01:34;;;;;;;34.88;16.77;;;;;;;;;;4981345;28;20049;-82
2020/12/09 05:04:06;;;;;;;37.38;17.70;;;;;;;;;;4997490;28;20041;-82
2020/12/09 05:06:33;;;;;;;32.85;17.45;;;;;;;;;;5010748;28;20161;-83
2020/12/09 05:09:00;;;;;;;37.50;18.90;;;;;;;;;;4999565;28;20065;-83
2020/12/09 05:11:27;;;;;;;38.47;19.60;;;;;;;;;;4981352;28;20093;-82
2020/12/09 05:14:18;;;;;;;36.35;19.05;;;;;;;;;;5005233;23;20397;-80
2020/12/09 05:16:58;;;;;;;37.72;18.73;;;;;;;;;;4978439;28;20142;-80
2020/12/09 05:19:35;;;;;;;41.45;20.38;;;;;;;;;;5005338;28;20096;-82
2020/12/09 05:22:42;;;;;;;39.25;19.25;;;;;;;;;;4923211;29;20566;-81
2020/12/09 05:25:35;;;;;;;41.67;20.20;;;;;;;;;;4927900;29;20136;-82
2020/12/09 05:28:03;;;;;;;39.97;19.95;;;;;;;;;;4941834;29;20103;-82
2020/12/09 05:30:39;;;;;;;43.83;21.40;;;;;;;;;;4939338;29;20153;-82
2020/12/09 05:33:06;;;;;;;42.70;21.85;;;;;;;;;;4942904;29;20044;-82
2020/12/09 05:35:32;;;;;;;46.60;22.05;;;;;;;;;;4933420;29;20099;-81
2020/12/09 05:38:07;;;;;;;45.10;21.98;;;;;;;;;;4945216;29;20080;-80
2020/12/09 05:40:33;;;;;;;42.65;21.55;;;;;;;;;;5018688;28;20057;-79
2020/12/09 05:43:00;;;;;;;45.53;22.05;;;;;;;;;;5012964;28;20425;-77
2020/12/09 05:45:27;;;;;;;42.05;21.55;;;;;;;;;;4983441;28;20082;-78
2020/12/09 05:48:13;;;;;;;41.95;21.25;;;;;;;;;;4985429;28;20046;-78
2020/12/09 05:50:47;;;;;;;42.80;20.83;;;;;;;;;;4993636;28;20421;-78
2020/12/09 05:53:20;;;;;;;43.35;21.70;;;;;;;;;;5000461;28;20046;-79
2020/12/09 05:55:48;;;;;;;42.55;21.42;;;;;;;;;;4996519;28;20064;-78
2020/12/09 05:58:22;;;;;;;45.15;22.60;;;;;;;;;;4990564;28;20047;-77
2020/12/09 06:01:09;;;;;;;42.42;20.95;;;;;;;;;;4996440;28;20118;-78
2020/12/09 06:03:37;;;;;;;42.67;21.80;;;;;;;;;;5007301;28;20323;-79
2020/12/09 06:06:13;;;;;;;44.03;22.17;;;;;;;;;;4994067;28;20046;-79
2020/12/09 06:08:44;;;;;;;42.03;21.55;;;;;;;;;;4994512;28;20046;-78
2020/12/09 06:11:11;;;;;;;41.75;20.40;;;;;;;;;;4983238;28;20074;-78
2020/12/09 06:13:37;;;;;;;45.38;21.27;;;;;;;;;;4994210;28;20057;-78
2020/12/09 06:16:05;;;;;;;37.13;19.88;;;;;;;;;;4993444;28;20391;-78
2020/12/09 06:18:31;;;;;;;39.95;20.58;;;;;;;;;;4975537;28;20548;-78
2020/12/09 06:20:58;;;;;;;37.70;19.83;;;;;;;;;;4992230;28;20042;-79
2020/12/09 06:23:27;;;;;;;36.90;20.60;;;;;;;;;;4974944;28;20043;-78
2020/12/09 06:25:55;;;;;;;36.90;19.15;;;;;;;;;;4984962;28;20045;-79
2020/12/09 06:28:22;;;;;;;35.45;18.13;;;;;;;;;;4992707;28;20043;-80
2020/12/09 06:30:50;;;;;;;40.17;18.80;;;;;;;;;;5003125;28;20482;-78
2020/12/09 06:33:34;;;;;;;36.78;18.58;;;;;;;;;;4996970;28;20133;-78
2020/12/09 06:36:09;;;;;;;31.90;17.13;;;;;;;;;;4993124;28;20038;-78
2020/12/09 06:38:35;;;;;;;36.33;17.55;;;;;;;;;;4982131;28;20050;-78
2020/12/09 06:41:05;;;;;;;37.00;18.55;;;;;;;;;;5009087;28;20056;-79
2020/12/09 06:43:31;;;;;;;32.97;17.90;;;;;;;;;;4991781;28;20069;-78
2020/12/09 06:45:58;;;;;;;33.00;17.80;;;;;;;;;;4999435;28;20042;-77
2020/12/09 06:48:24;;;;;;;33.58;17.48;;;;;;;;;;4995776;28;20084;-77
2020/12/09 06:50:51;;;;;;;29.77;16.52;;;;;;;;;;4976693;28;20656;-78
2020/12/09 06:53:18;;;;;;;30.98;16.38;;;;;;;;;;4994762;28;20417;-76
2020/12/09 06:55:45;;;;;;;30.92;15.63;;;;;;;;;;5000266;28;20042;-77
2020/12/09 06:58:25;;;;;;;29.50;15.20;;;;;;;;;;4994932;28;20038;-79
2020/12/09 07:01:02;;;;;;;22.40;13.32;;;;;;;;;;4993531;28;20069;-75
2020/12/09 07:03:30;;;;;;;21.83;13.05;;;;;;;;;;4978690;28;20112;-77
2020/12/09 07:05:57;;;;;;;22.85;12.90;;;;;;;;;;4996235;28;20045;-78
2020/12/09 07:08:23;;;;;;;26.50;13.63;;;;;;;;;;5016928;28;20766;-79
2020/12/09 07:10:50;;;;;;;22.80;13.15;;;;;;;;;;4971245;28;20042;-77
2020/12/09 07:13:18;;;;;;;19.95;11.95;;;;;;;;;;4975130;28;20453;-78
2020/12/09 07:15:49;;;;;;;17.20;11.02;;;;;;;;;;4990610;28;20054;-77
2020/12/09 07:18:16;;;;;;;21.80;12.25;;;;;;;;;;4975867;28;20050;-78
2020/12/09 07:20:42;;;;;;;19.85;10.60;;;;;;;;;;4958925;28;20042;-78
2020/12/09 07:23:08;;;;;;;17.15;10.18;;;;;;;;;;4993144;28;20125;-78
2020/12/09 07:25:35;;;;;;;17.35;10.85;;;;;;;;;;4975221;28;20153;-79
2020/12/09 07:28:01;;;;;;;21.85;11.70;;;;;;;;;;4976482;28;20553;-79
2020/12/09 07:30:32;;;;;;;19.27;11.40;;;;;;;;;;4975809;28;20061;-78
2020/12/09 07:33:02;;;;;;;20.30;10.88;;;;;;;;;;4976611;28;20078;-78
2020/12/09 07:35:31;;;;;;;16.95;10.15;;;;;;;;;;4973446;28;20073;-78
2020/12/09 07:37:59;;;;;;;18.05;10.65;;;;;;;;;;4989747;28;20057;-77
2020/12/09 07:40:30;;;;;;;16.63;10.50;;;;;;;;;;4958099;28;20041;-77
2020/12/09 07:43:03;;;;;;;18.60;10.93;;;;;;;;;;4974972;28;20467;-78
2020/12/09 07:45:32;;;;;;;18.30;10.05;;;;;;;;;;4991153;28;20150;-77
2020/12/09 07:47:59;;;;;;;19.98;11.73;;;;;;;;;;4974235;28;20049;-78
2020/12/09 07:50:25;;;;;;;20.55;11.63;;;;;;;;;;4972008;28;20042;-77
2020/12/09 07:52:52;;;;;;;21.35;11.95;;;;;;;;;;4990271;28;20064;-78
2020/12/09 07:55:19;;;;;;;21.92;11.68;;;;;;;;;;4990527;28;20039;-78
2020/12/09 07:57:45;;;;;;;22.58;11.88;;;;;;;;;;4975070;28;20046;-78
2020/12/09 08:00:12;;;;;;;18.40;10.63;;;;;;;;;;4990999;28;20472;-78
2020/12/09 08:02:39;;;;;;;23.45;12.65;;;;;;;;;;4971986;28;20091;-79
2020/12/09 08:05:10;;;;;;;21.63;11.48;;;;;;;;;;4973023;28;20050;-78
2020/12/09 08:07:45;;;;;;;22.27;11.75;;;;;;;;;;4957076;28;20149;-78
2020/12/09 08:10:16;;;;;;;20.63;12.00;;;;;;;;;;4959067;28;20052;-77
2020/12/09 08:12:42;;;;;;;22.08;11.80;;;;;;;;;;4957793;28;20050;-78
2020/12/09 08:15:10;;;;;;;23.40;11.85;;;;;;;;;;4972960;28;20047;-78
2020/12/09 08:17:37;;;;;;;20.63;11.88;;;;;;;;;;4973877;28;20042;-78
2020/12/09 08:20:09;;;;;;;23.52;12.35;;;;;;;;;;4957351;28;20051;-78
2020/12/09 08:23:08;;;;;;;20.27;11.93;;;;;;;;;;4990953;28;20043;-78
2020/12/09 08:25:43;;;;;;;23.00;12.23;;;;;;;;;;4942303;28;20081;-77
2020/12/09 08:28:10;;;;;;;20.70;11.35;;;;;;;;;;4991494;28;20050;-77
2020/12/09 08:30:36;;;;;;;21.10;11.68;;;;;;;;;;4972660;28;20070;-77
2020/12/09 08:33:06;;;;;;;22.52;12.32;;;;;;;;;;4990708;28;20679;-77
2020/12/09 08:35:51;;;;;;;22.30;12.45;;;;;;;;;;4971644;28;20513;-76
2020/12/09 08:38:38;;;;;;;21.73;11.53;;;;;;;;;;4990590;28;20042;-77
2020/12/09 08:41:45;;;;;;;25.52;12.45;;;;;;;;;;4990045;28;20112;-77
2020/12/09 08:44:12;;;;;;;22.52;12.00;;;;;;;;;;4973101;28;20058;-77
2020/12/09 08:46:39;;;;;;;19.33;11.93;;;;;;;;;;4991552;28;20054;-78
2020/12/09 08:49:05;;;;;;;21.30;12.77;;;;;;;;;;4996192;28;20050;-79
2020/12/09 08:51:33;;;;;;;21.83;12.57;;;;;;;;;;4981159;28;20100;-78
2020/12/09 08:54:00;;;;;;;22.13;12.55;;;;;;;;;;5001568;28;20092;-77
2020/12/09 08:56:28;;;;;;;25.25;12.75;;;;;;;;;;5016302;28;20049;-78
2020/12/09 08:58:54;;;;;;;22.42;12.38;;;;;;;;;;4996668;28;20436;-77
2020/12/09 09:01:21;;;;;;;24.13;13.40;;;;;;;;;;4994968;28;20041;-77
2020/12/09 09:03:48;;;;;;;24.63;12.50;;;;;;;;;;5013546;28;20750;-77
2020/12/09 09:06:14;;;;;;;26.52;12.82;;;;;;;;;;5013756;28;20054;-77
2020/12/09 09:08:40;;;;;;;27.02;13.27;;;;;;;;;;4996055;28;20052;-78
2020/12/09 09:11:06;;;;;;;25.08;13.30;;;;;;;;;;4996720;28;20077;-78
2020/12/09 09:13:32;;;;;;;88.85;31.65;;;;;;;;;;5013546;28;20037;-76
2020/12/09 09:16:04;;;;;;;61.20;22.88;;;;;;;;;;4995220;28;20096;-77
2020/12/09 09:18:31;;;;;;;29.50;15.27;;;;;;;;;;4994937;28;20139;-77
2020/12/09 09:20:57;;;;;;;30.67;14.57;;;;;;;;;;4979194;28;20060;-77
2020/12/09 09:23:23;;;;;;;24.42;14.25;;;;;;;;;;5014488;28;20045;-77
2020/12/09 09:25:49;;;;;;;25.10;13.48;;;;;;;;;;5013989;28;20038;-77
2020/12/09 09:28:16;;;;;;;17.48;10.65;;;;;;;;;;5014541;28;20042;-77
2020/12/09 09:30:43;;;;;;;18.45;10.07;;;;;;;;;;4981477;28;20053;-78
2020/12/09 09:33:09;;;;;;;20.88;12.25;;;;;;;;;;5000145;28;20045;-78
2020/12/09 09:35:39;;;;;;;23.35;12.57;;;;;;;;;;4996078;28;20421;-77
2020/12/09 09:38:05;;;;;;;20.75;11.75;;;;;;;;;;5012518;28;20057;-76
2020/12/09 09:40:31;;;;;;;21.35;11.80;;;;;;;;;;4996948;28;20042;-78
2020/12/09 09:42:57;;;;;;;21.23;11.25;;;;;;;;;;4998569;28;20069;-78
2020/12/09 09:45:24;;;;;;;18.45;10.73;;;;;;;;;;5015943;28;20054;-78
2020/12/09 09:47:51;;;;;;;20.58;10.15;;;;;;;;;;4998171;28;20109;-79
2020/12/09 09:50:17;;;;;;;17.85;9.70;;;;;;;;;;5011989;28;20050;-77
2020/12/09 09:52:44;;;;;;;16.65;10.02;;;;;;;;;;5012336;28;20060;-78
2020/12/09 09:55:11;;;;;;;16.10;9.20;;;;;;;;;;4996182;28;20052;-78
2020/12/09 09:57:37;;;;;;;17.08;9.00;;;;;;;;;;4995936;28;20038;-78
2020/12/09 10:00:05;;;;;;;15.40;9.50;;;;;;;;;;4995984;28;20050;-79
2020/12/09 10:02:31;;;;;;;15.45;9.40;;;;;;;;;;4996202;28;20046;-78
2020/12/09 10:04:58;;;;;;;14.80;9.13;;;;;;;;;;5010115;28;20056;-78
2020/12/09 10:07:24;;;;;;;13.82;8.95;;;;;;;;;;4993261;28;20045;-77
2020/12/09 10:09:50;;;;;;;15.88;9.15;;;;;;;;;;5012352;28;20042;-77
2020/12/09 10:12:17;;;;;;;14.75;8.45;;;;;;;;;;4979068;28;20033;-78
2020/12/09 10:14:44;;;;;;;17.05;9.10;;;;;;;;;;5011061;28;20173;-77
2020/12/09 10:17:10;;;;;;;13.60;8.23;;;;;;;;;;4993616;28;20048;-77
2020/12/09 10:19:36;;;;;;;14.63;9.27;;;;;;;;;;5011622;28;20038;-78
2020/12/09 10:22:03;;;;;;;14.73;9.15;;;;;;;;;;5012276;28;20046;-78
2020/12/09 10:24:30;;;;;;;19.50;8.75;;;;;;;;;;5012180;28;20528;-78
2020/12/09 10:26:56;;;;;;;14.88;8.48;;;;;;;;;;5011905;28;20145;-78
2020/12/09 10:29:23;;;;;;;14.15;8.13;;;;;;;;;;4993298;28;20505;-78
2020/12/09 10:31:49;;;;;;;13.77;7.95;;;;;;;;;;4993535;28;20576;-79
2020/12/09 10:34:18;;;;;;;13.55;7.95;;;;;;;;;;5008902;28;20049;-78
2020/12/09 10:36:48;;;;;;;14.40;7.97;;;;;;;;;;4992742;28;20402;-78
2020/12/09 10:39:15;;;;;;;14.88;8.02;;;;;;;;;;4992831;28;20122;-78
2020/12/09 10:41:41;;;;;;;13.77;7.60;;;;;;;;;;4995702;28;20490;-78
2020/12/09 10:44:09;;;;;;;13.68;7.63;;;;;;;;;;5011422;28;20416;-78
2020/12/09 10:46:36;;;;;;;15.18;7.45;;;;;;;;;;5010181;28;20049;-78
2020/12/09 10:49:06;;;;;;;12.68;7.75;;;;;;;;;;4976164;28;20056;-78
2020/12/09 10:51:32;;;;;;;15.48;7.93;;;;;;;;;;4993119;28;20493;-79
2020/12/09 10:53:59;;;;;;;13.85;7.88;;;;;;;;;;4996720;28;20053;-79
2020/12/09 10:56:31;;;;;;;13.38;7.35;;;;;;;;;;5022716;28;20050;-78
2020/12/09 10:58:57;;;;;;;11.70;6.93;;;;;;;;;;5012620;28;20053;-77
2020/12/09 11:01:27;;;;;;;12.05;7.35;;;;;;;;;;4989256;28;20572;-78
2020/12/09 11:03:54;;;;;;;16.25;7.93;;;;;;;;;;4989548;28;20550;-78
2020/12/09 11:06:26;;;;;;;14.07;7.15;;;;;;;;;;4978400;28;20060;-78
2020/12/09 11:08:53;;;;;;;13.60;7.78;;;;;;;;;;4989529;28;20373;-78
2020/12/09 11:11:19;;;;;;;12.65;7.30;;;;;;;;;;4984566;28;20484;-78
2020/12/09 11:13:46;;;;;;;11.15;7.03;;;;;;;;;;4985023;28;20145;-78
2020/12/09 11:16:18;;;;;;;13.57;7.18;;;;;;;;;;4993252;28;20125;-78
2020/12/09 11:18:45;;;;;;;10.45;6.53;;;;;;;;;;4974276;28;20497;-77
2020/12/09 11:21:15;;;;;;;13.18;7.45;;;;;;;;;;4974739;28;20051;-77
2020/12/09 11:23:42;;;;;;;13.30;7.88;;;;;;;;;;4991706;28;20050;-78
2020/12/09 11:26:09;;;;;;;16.27;8.32;;;;;;;;;;4991618;28;20125;-78
2020/12/09 11:28:35;;;;;;;13.15;8.15;;;;;;;;;;4976095;28;20088;-77
2020/12/09 11:31:01;;;;;;;13.70;8.48;;;;;;;;;;4991321;28;20046;-77
2020/12/09 11:33:28;;;;;;;15.45;8.45;;;;;;;;;;4991470;28;20050;-77
2020/12/09 11:35:55;;;;;;;12.98;8.10;;;;;;;;;;4974393;28;20418;-77
2020/12/09 11:38:21;;;;;;;13.38;7.88;;;;;;;;;;4975010;28;20506;-77
2020/12/09 11:40:48;;;;;;;13.02;8.05;;;;;;;;;;4992820;28;20130;-77
2020/12/09 11:43:16;;;;;;;12.80;8.00;;;;;;;;;;4974599;28;20046;-77
2020/12/09 11:45:43;;;;;;;15.02;7.72;;;;;;;;;;4989724;28;20134;-77
2020/12/09 11:48:14;;;;;;;12.20;7.57;;;;;;;;;;4991548;28;20485;-79
2020/12/09 11:50:40;;;;;;;13.73;8.60;;;;;;;;;;4991006;28;20078;-78
2020/12/09 11:53:07;;;;;;;15.15;8.40;;;;;;;;;;4976905;28;20046;-79
2020/12/09 11:55:33;;;;;;;14.32;8.10;;;;;;;;;;4987053;28;20039;-78
2020/12/09 11:58:00;;;;;;;14.00;7.85;;;;;;;;;;4992782;28;20108;-77
2020/12/09 12:00:28;;;;;;;13.90;8.48;;;;;;;;;;4978000;28;20073;-78
2020/12/09 12:02:56;;;;;;;19.20;8.23;;;;;;;;;;4975275;28;20065;-78
2020/12/09 12:05:24;;;;;;;13.55;8.27;;;;;;;;;;4961849;28;20050;-79
2020/12/09 12:07:50;;;;;;;12.77;7.75;;;;;;;;;;4976850;28;20100;-78
2020/12/09 12:10:17;;;;;;;14.73;8.32;;;;;;;;;;5002712;28;20056;-78
2020/12/09 12:12:45;;;;;;;12.70;8.07;;;;;;;;;;5001086;28;20118;-78
2020/12/09 12:15:21;;;;;;;11.43;7.25;;;;;;;;;;4977350;28;20836;-78
2020/12/09 12:17:58;;;;;;;10.38;7.13;;;;;;;;;;4994044;28;20054;-77
2020/12/09 12:20:25;;;;;;;14.30;8.07;;;;;;;;;;4981011;28;20042;-79
2020/12/09 12:22:52;;;;;;;10.27;6.78;;;;;;;;;;4974974;28;20046;-78
2020/12/09 12:25:19;;;;;;;14.93;7.25;;;;;;;;;;4974788;28;20046;-78
2020/12/09 12:27:46;;;;;;;11.02;7.20;;;;;;;;;;4974434;28;20050;-78
2020/12/09 12:30:13;;;;;;;10.35;7.22;;;;;;;;;;4990512;28;20075;-80
2020/12/09 12:32:39;;;;;;;10.77;7.80;;;;;;;;;;4974817;28;20131;-78
2020/12/09 12:35:06;;;;;;;11.05;7.00;;;;;;;;;;4957944;28;20038;-78
2020/12/09 12:37:33;;;;;;;11.02;7.30;;;;;;;;;;4957652;28;20070;-79
2020/12/09 12:40:02;;;;;;;9.55;6.80;;;;;;;;;;4958757;28;20046;-79
2020/12/09 12:42:31;;;;;;;10.18;7.10;;;;;;;;;;4974813;28;20034;-78
2020/12/09 12:44:58;;;;;;;11.20;7.10;;;;;;;;;;4975290;28;20110;-79
2020/12/09 12:47:25;;;;;;;11.82;7.53;;;;;;;;;;4973449;28;20106;-79
2020/12/09 12:49:51;;;;;;;9.82;6.63;;;;;;;;;;4964978;28;20054;-79
2020/12/09 12:52:18;;;;;;;9.85;6.55;;;;;;;;;;4964488;28;20050;-79
2020/12/09 12:54:44;;;;;;;9.18;6.40;;;;;;;;;;4978995;28;20046;-78
2020/12/09 12:57:11;;;;;;;11.05;7.13;;;;;;;;;;4950895;28;20525;-79
2020/12/09 12:59:38;;;;;;;9.77;6.93;;;;;;;;;;4990639;28;20049;-76
2020/12/09 13:02:05;;;;;;;11.32;7.15;;;;;;;;;;4974421;28;20108;-78
2020/12/09 13:04:31;;;;;;;10.93;6.93;;;;;;;;;;4956921;28;20042;-78
2020/12/09 13:06:58;;;;;;;9.20;7.13;;;;;;;;;;4974289;28;20038;-78
2020/12/09 13:09:26;;;;;;;11.02;7.68;;;;;;;;;;4974626;28;20048;-78
2020/12/09 13:11:56;;;;;;;11.13;7.85;;;;;;;;;;4974920;28;20136;-79
2020/12/09 13:14:24;;;;;;;11.75;7.88;;;;;;;;;;4975151;28;20049;-78
2020/12/09 13:16:50;;;;;;;11.73;7.90;;;;;;;;;;4974379;28;20076;-79
2020/12/09 13:19:20;;;;;;;11.43;8.07;;;;;;;;;;4974621;28;20050;-78
2020/12/09 13:21:47;;;;;;;12.15;9.10;;;;;;;;;;4977479;28;20046;-78
2020/12/09 13:24:16;;;;;;;14.85;8.70;;;;;;;;;;4977758;28;20049;-78
2020/12/09 13:26:43;;;;;;;10.27;7.70;;;;;;;;;;4963588;28;20059;-78
2020/12/09 13:29:10;;;;;;;11.77;8.32;;;;;;;;;;4974289;28;20050;-79
2020/12/09 13:31:39;;;;;;;14.52;8.10;;;;;;;;;;4973544;28;20046;-78
2020/12/09 13:34:08;;;;;;;12.23;8.50;;;;;;;;;;4974621;28;20051;-78
2020/12/09 13:36:36;;;;;;;13.27;9.20;;;;;;;;;;4958120;28;20050;-79
2020/12/09 13:39:04;;;;;;;13.80;8.70;;;;;;;;;;4993633;28;20133;-78
2020/12/09 13:41:31;;;;;;;26.10;10.18;;;;;;;;;;4980191;28;20038;-79
2020/12/09 13:43:58;;;;;;;15.70;10.93;;;;;;;;;;4988734;28;20489;-78
2020/12/09 13:46:24;;;;;;;14.95;10.32;;;;;;;;;;4978729;28;20053;-78
2020/12/09 13:48:54;;;;;;;17.85;10.73;;;;;;;;;;4996171;28;20057;-79
2020/12/09 13:51:20;;;;;;;16.58;11.07;;;;;;;;;;4964320;28;20097;-78
2020/12/09 13:53:46;;;;;;;18.77;11.77;;;;;;;;;;4961791;28;20064;-79
2020/12/09 13:56:25;;;;;;;20.27;12.85;;;;;;;;;;4979321;28;20046;-78
2020/12/09 13:58:52;;;;;;;20.90;12.82;;;;;;;;;;4995781;28;20113;-79
2020/12/09 14:01:21;;;;;;;22.73;14.02;;;;;;;;;;4977993;28;20396;-79
2020/12/09 14:03:48;;;;;;;22.05;13.70;;;;;;;;;;4985170;28;20042;-79
2020/12/09 14:06:18;;;;;;;21.42;13.35;;;;;;;;;;4995391;28;20050;-80
2020/12/09 14:08:45;;;;;;;21.05;13.55;;;;;;;;;;5011729;28;20045;-79
2020/12/09 14:11:12;;;;;;;20.80;13.93;;;;;;;;;;4995835;28;20076;-78
2020/12/09 14:13:38;;;;;;;21.75;13.85;;;;;;;;;;4993057;28;20053;-78
2020/12/09 14:16:07;;;;;;;21.75;12.98;;;;;;;;;;4979416;28;20054;-78
2020/12/09 14:18:33;;;;;;;18.00;13.00;;;;;;;;;;4985669;28;20293;-79
2020/12/09 14:21:01;;;;;;;23.63;13.90;;;;;;;;;;4985426;28;20070;-78
2020/12/09 14:23:28;;;;;;;24.30;14.82;;;;;;;;;;5002364;28;20059;-78
2020/12/09 14:25:55;;;;;;;20.90;14.75;;;;;;;;;;4982426;28;20050;-78
2020/12/09 14:28:23;;;;;;;22.15;15.13;;;;;;;;;;4981957;28;20307;-78
2020/12/09 14:30:52;;;;;;;24.98;15.13;;;;;;;;;;4965390;28;20106;-78
2020/12/09 14:33:25;;;;;;;29.08;15.57;;;;;;;;;;5002403;28;20053;-78
2020/12/09 14:36:12;;;;;;;25.23;16.20;;;;;;;;;;5007910;28;20077;-79
2020/12/09 14:38:44;;;;;;;24.70;16.75;;;;;;;;;;5008737;28;20514;-78
2020/12/09 14:41:15;;;;;;;26.77;16.58;;;;;;;;;;4981798;28;20046;-79
2020/12/09 14:43:51;;;;;;;29.33;17.00;;;;;;;;;;4982216;28;20037;-78
2020/12/09 14:46:24;;;;;;;25.23;16.88;;;;;;;;;;4959988;28;20502;-78